HOURLY OBS INDEX

041

Darling Downs - east

APPLETHORPE

Site: 041175
Alt: 871.6m
118km S of TOOWOOMBA


  Time     Wind        Temp  DP   Baro     Rain since   Rain past  Vis(m), Cloud(base in m), Weather
  local        km/h                         9am  last   hr   10m    
Wed 16:00    W 15/ 26  22.9  5.8  1014.6    0.0   0.0   0.0   0.0   ----- 
Wed 16:30  WNW  9/ 17  22.8  6.1  1014.5    0.0   0.0   0.0   0.0   ----- 
Wed 17:00    W  7/ 13  22.1  5.1  1014.6    0.0   0.0   0.0   0.0   ----- 
Wed 17:30    W  7/ 13  21.8  5.7  1014.9    0.0   0.0   0.0   0.0   ----- 
Wed 18:00    W  7/ 15  20.8  5.2  1015.1    0.0   0.0   0.0   0.0   ----- 
Wed 18:30    W  6/  7  19.9  5.5  1015.4    0.0   0.0   0.0   0.0   ----- 
Wed 19:00    C  0/  2  18.1  6.0  1015.4    0.0   0.0   0.0   0.0   ----- 
Wed 19:30    C  0/  0  16.5  6.1  1015.5    0.0   0.0   0.0   0.0   ----- 
Wed 20:00    C  0/  0  15.1  6.4  1015.6    0.0   0.0   0.0   0.0   ----- 
Wed 20:30  NNW  6/ 13  18.0  8.6  1016.1    0.0   0.0   0.0   0.0   ----- 
Wed 21:00    N  9/ 17  17.5  7.5  1015.7    0.0   0.0   0.0   0.0   ----- 

BRISBANE WEST WELLCAMP AIRPORT

Site: 041BWW
Alt: 530m
17km W of TOOWOOMBA


  Time     Wind        Temp  DP   Baro     Rain since   Rain past  Vis(m), Cloud(base in m), Weather
  local        km/h                         9am  last   hr   10m    
Wed 16:00  WNW 22/ 32  28.4  6.5  1012.1    0.0   0.0   0.0   0.0   10000|SC2880 SC3450 
Wed 16:30   NW 19/ 30  27.8  7.1  1012.3    0.0   0.0   0.0   0.0   10000|SC2820 
Wed 17:00   NW 20/ 30  27.8  7.1  1012.4    0.0   0.0   0.0   0.0   10000 
Wed 17:30   NW 15/ 20  25.8  6.9  1012.4    0.0   0.0   0.0   0.0   10000 
Wed 18:00   NW 11/ 13  23.3  6.1  1012.8    0.0   0.0   0.0   0.0   10000 
Wed 18:30  NNW  7/ 11  21.9  5.8  1013.1    0.0   0.0   0.0   0.0   10000 
Wed 19:00  NNE  6/ 11  21.2  5.1  1013.2    0.0   0.0   0.0   0.0   10000|SC2700 
Wed 19:30    N  6/  6  20.7  5.5  1013.3    0.0   0.0   0.0   0.0   10000 
Wed 20:00  WNW  2/  4  19.4  5.8  1013.4    0.0   0.0   0.0   0.0   10000 
Wed 20:30   NW  2/  6  19.4  5.5  1014.0    0.0   0.0   0.0   0.0   10000|BR3000 OC3750 
Wed 21:00    E  6/ 11  21.3 10.2  1013.9    0.0   0.0   0.0   0.0   10000|OC3000 OC3750 

DALBY AIRPORT

Site: 041522
Alt: 343.9m
3km NNE of DALBY


  Time     Wind        Temp  DP   Baro     Rain since   Rain past  Vis(m), Cloud(base in m), Weather
  local        km/h                         9am  last   hr   10m    
Wed 16:00  WNW 20/ 33  29.3  5.4  1012.1    0.0   0.0   0.0   0.0   ----- 
Wed 16:30   NW 20/ 30  29.1  5.2  1012.2    0.0   0.0   0.0   0.0   ----- 
Wed 17:00   NW 19/ 26  27.9  4.9  1012.2    0.0   0.0   0.0   0.0   ----- 
Wed 17:30   NW 17/ 20  26.3  4.7  1012.3    0.0   0.0   0.0   0.0   ----- 
Wed 18:00  NNW 15/ 17  25.1  4.3  1012.6    0.0   0.0   0.0   0.0   ----- 
Wed 18:30  WNW 11/ 13  24.3  4.6  1013.1    0.0   0.0   0.0   0.0   ----- 
Wed 18:48    W 35/ 41  26.4  5.4  1013.2    0.0   0.0  ----   0.0   ----- 
Wed 19:00  WNW 35/ 45  26.3  4.1  1013.2    0.0   0.0   0.0   0.0   ----- 
Wed 19:30  NNW 15/ 17  24.0  4.9  1013.3    0.0   0.0   0.0   0.0   ----- 
Wed 20:00    W 15/ 17  22.6  5.5  1013.5    0.0   0.0   0.0   0.0   ----- 
Wed 20:30    N 20/ 22  21.2  5.1  1013.7    0.0   0.0   0.0   0.0   ----- 
Wed 21:00    N 13/ 17  19.9  4.8  1013.7    0.0   0.0   0.0   0.0   ----- 

OAKEY AERO

Site: 041359
Alt: 405.7m
27km NW of TOOWOOMBA


  Time     Wind        Temp  DP   Baro     Rain since   Rain past  Vis(m), Cloud(base in m), Weather
  local        km/h                         9am  last   hr   10m    
Wed 16:00  WNW 19/ 32  29.0  4.5  1012.5    0.0   0.0   0.0   0.0   10000|BR3000 
Wed 16:30  WNW 26/ 37  28.1  5.6  1012.6    0.0   0.0   0.0   0.0   10000|SC2580 
Wed 17:00   NW 20/ 26  27.7  5.9  1012.7    0.0   0.0   0.0   0.0   10000 
Wed 17:30   NW 24/ 30  26.2  5.2  1012.7    0.0   0.0   0.0   0.0   10000 
Wed 18:00   NW 15/ 19  24.3  5.1  1013.1    0.0   0.0   0.0   0.0   10000 
Wed 18:30  NNW 11/ 13  21.9  4.0  1013.3    0.0   0.0   0.0   0.0   10000 
Wed 19:00    N 13/ 17  21.0  4.6  1013.5    0.0   0.0   0.0   0.0   10000 
Wed 19:30    N 15/ 17  21.2  4.7  1013.5    0.0   0.0   0.0   0.0   10000 
Wed 20:00    N 13/ 13  20.1  3.8  1013.7    0.0   0.0   0.0   0.0   10000 
Wed 20:30    N  9/ 13  20.7  4.3  1014.1    0.0   0.0   0.0   0.0   10000 
Wed 21:00  NNW  2/  6  20.4  4.8  1014.1    0.0   0.0   0.0   0.0   10000|BR3000 

TOOWOOMBA AIRPORT

Site: 041529
Alt: 640.9m
4km WNW of TOOWOOMBA


  Time     Wind        Temp  DP   Baro     Rain since   Rain past  Vis(m), Cloud(base in m), Weather
  local        km/h                         9am  last   hr   10m    
Wed 16:00    W 19/ 33  25.9  4.4  1014.6    0.0   0.0   0.0   0.0   10000|SC2910 
Wed 16:30    W 24/ 37  25.0  5.2  1014.8    0.0   0.0   0.0   0.0   10000|SC2550 
Wed 17:00  WNW 17/ 26  25.2  5.4  1014.9    0.0   0.0   0.0   0.0   10000 
Wed 17:30   NW 15/ 20  24.1  5.9  1015.0    0.0   0.0   0.0   0.0   10000 
Wed 18:00  WNW 11/ 13  23.1  6.0  1015.4    0.0   0.0   0.0   0.0   10000 
Wed 18:30   NW 11/ 15  22.4  5.8  1015.6    0.0   0.0   0.0   0.0   10000 
Wed 19:00  NNE  7/ 13  20.2  6.2  1015.8    0.0   0.0   0.0   0.0   10000 
Wed 19:30    E 15/ 17  19.6  9.8  1015.9    0.0   0.0   0.0   0.0   10000 
Wed 20:00    E 17/ 19  18.7 11.3  1016.0    0.0   0.0   0.0   0.0   10000|SC2430 
Wed 20:30    E 17/ 19  18.5 11.8  1016.4    0.0   0.0   0.0   0.0   10000|SC3150 
Wed 21:00    E 13/ 17  18.2 12.0  1016.4    0.0   0.0   0.0   0.0   10000|BR2880 OC3450 

WARWICK

Site: 041525
Alt: 475.4m
73km SSE of TOOWOOMBA


  Time     Wind        Temp  DP   Baro     Rain since   Rain past  Vis(m), Cloud(base in m), Weather
  local        km/h                         9am  last   hr   10m    
Wed 16:00    W 22/ 32  26.5  5.0  1012.0    0.0   0.0   0.0   0.0   ----- 
Wed 16:30  WNW 20/ 32  26.2  3.2  1012.0    0.0   0.0   0.0   0.0   ----- 
Wed 17:00  WNW 17/ 24  25.7  4.8  1012.2    0.0   0.0   0.0   0.0   ----- 
Wed 17:30   NW 13/ 20  25.5  6.0  1012.3    0.0   0.0   0.0   0.0   ----- 
Wed 18:00   NW 13/ 22  24.8  5.4  1012.5    0.0   0.0   0.0   0.0   ----- 
Wed 18:30  NNW 11/ 19  24.1  5.6  1012.8    0.0   0.0   0.0   0.0   ----- 
Wed 19:00    N 17/ 24  22.7  6.7  1013.0    0.0   0.0   0.0   0.0   ----- 
Wed 19:30    N 19/ 22  21.8  7.5  1013.3    0.0   0.0   0.0   0.0   ----- 
Wed 20:00    N 17/ 20  21.9  8.8  1013.8    0.0   0.0   0.0   0.0   ----- 
Wed 20:16   NW 28/ 45  20.7  9.5  1014.8    0.0   0.0  ----   0.0   ----- 
Wed 20:30    N 24/ 33  19.4 10.3  1013.7    0.0   0.0   0.0   0.0   ----- 
Wed 21:00    N 20/ 26  19.0 10.3  1014.0    0.0   0.0   0.0   0.0   -----